Atlanta, Georgia
Traffic Map
Current Weather Conditions
Atlanta, Georgia
Broken Clouds
Broken Clouds
86°
Feels Like: 94°
Wind Chill: 86° Ceiling: 20000
Heat Index: 94° Visibility: 10mi
Dew Point: 74° Wind: 6mph
Humidity: 67% Direction: 210° (SSW)
Pressure: 30.07in Gusts: 0mph
Raw Report DataKATL 231452Z 21005KT 10SM FEW030 BKN200 BKN250 30/23 A3007 RMK AO2 SLP169 T03000233 51006
Traffic Incident Summary
Active as of:
Severity:
Category:
InformationThere was an issue retrieving the traffic information for this location. Please try a different location or try again shortly.
Advertisements
Track Severe Weather on mobile